sensor_id;sensor_type;location;lat;lon;timestamp;pressure;altitude;pressure_sealevel;temperature;humidity
21863;BME280;11096;51.338;12.524;2023-04-01T00:01:53;98287.84;;;21.36;nan
21863;BME280;11096;51.338;12.524;2023-04-01T00:04:19;98279.66;;;21.75;nan
21863;BME280;11096;51.338;12.524;2023-04-01T00:06:46;98278.00;;;21.62;nan
21863;BME280;11096;51.338;12.524;2023-04-01T00:09:12;98282.47;;;21.25;nan
21863;BME280;11096;51.338;12.524;2023-04-01T00:11:38;98279.13;;;21.54;nan
21863;BME280;11096;51.338;12.524;2023-04-01T00:14:04;98279.84;;;21.61;nan
21863;BME280;11096;51.338;12.524;2023-04-01T00:16:29;98278.34;;;21.65;nan
21863;BME280;11096;51.338;12.524;2023-04-01T00:18:55;98275.44;;;21.55;nan
21863;BME280;11096;51.338;12.524;2023-04-01T00:21:21;98275.75;;;21.47;nan
21863;BME280;11096;51.338;12.524;2023-04-01T00:23:48;98278.81;;;21.93;nan
21863;BME280;11096;51.338;12.524;2023-04-01T00:26:14;98284.94;;;21.75;nan
21863;BME280;11096;51.338;12.524;2023-04-01T00:28:40;98284.56;;;21.90;nan
21863;BME280;11096;51.338;12.524;2023-04-01T00:31:07;98279.50;;;21.88;nan
21863;BME280;11096;51.338;12.524;2023-04-01T00:33:33;98279.44;;;22.06;nan
21863;BME280;11096;51.338;12.524;2023-04-01T00:38:34;98283.16;;;21.87;nan
21863;BME280;11096;51.338;12.524;2023-04-01T00:40:59;98269.78;;;22.12;nan
21863;BME280;11096;51.338;12.524;2023-04-01T00:43:25;98277.25;;;22.03;nan
21863;BME280;11096;51.338;12.524;2023-04-01T00:45:51;98276.88;;;21.88;nan
21863;BME280;11096;51.338;12.524;2023-04-01T00:48:22;98279.78;;;21.98;nan
21863;BME280;11096;51.338;12.524;2023-04-01T00:50:59;98282.09;;;22.06;nan
21863;BME280;11096;51.338;12.524;2023-04-01T00:53:26;98270.06;;;22.22;nan
21863;BME280;11096;51.338;12.524;2023-04-01T00:56:37;98275.31;;;22.76;nan
21863;BME280;11096;51.338;12.524;2023-04-01T00:59:09;98272.09;;;23.21;nan
21863;BME280;11096;51.338;12.524;2023-04-01T01:01:36;98270.69;;;22.71;nan
21863;BME280;11096;51.338;12.524;2023-04-01T01:04:02;98281.78;;;22.80;nan
21863;BME280;11096;51.338;12.524;2023-04-01T01:06:45;98273.34;;;22.95;nan
21863;BME280;11096;51.338;12.524;2023-04-01T01:17:19;98269.22;;;22.87;nan
21863;BME280;11096;51.338;12.524;2023-04-01T01:31:12;98270.56;;;22.31;nan
21863;BME280;11096;51.338;12.524;2023-04-01T01:36:38;98270.91;;;22.23;nan
21863;BME280;11096;51.338;12.524;2023-04-01T01:39:07;98264.81;;;22.46;nan
21863;BME280;11096;51.338;12.524;2023-04-01T01:41:34;98268.75;;;22.43;nan
21863;BME280;11096;51.338;12.524;2023-04-01T01:44:03;98269.31;;;22.69;nan
21863;BME280;11096;51.338;12.524;2023-04-01T01:46:31;98264.78;;;22.22;nan
21863;BME280;11096;51.338;12.524;2023-04-01T01:48:57;98260.91;;;22.06;nan
21863;BME280;11096;51.338;12.524;2023-04-01T01:51:26;98259.28;;;22.36;nan
21863;BME280;11096;51.338;12.524;2023-04-01T01:53:53;98260.69;;;22.50;nan
21863;BME280;11096;51.338;12.524;2023-04-01T01:56:22;98258.97;;;22.56;nan
21863;BME280;11096;51.338;12.524;2023-04-01T01:58:52;98256.78;;;22.53;nan
21863;BME280;11096;51.338;12.524;2023-04-01T02:01:24;98263.34;;;22.50;nan
21863;BME280;11096;51.338;12.524;2023-04-01T02:03:52;98270.00;;;22.41;nan
21863;BME280;11096;51.338;12.524;2023-04-01T02:06:20;98270.47;;;22.38;nan
21863;BME280;11096;51.338;12.524;2023-04-01T02:08:56;98271.06;;;21.79;nan
21863;BME280;11096;51.338;12.524;2023-04-01T02:11:27;98266.66;;;22.03;nan
21863;BME280;11096;51.338;12.524;2023-04-01T02:13:55;98270.38;;;21.17;nan
21863;BME280;11096;51.338;12.524;2023-04-01T02:16:38;98264.59;;;22.47;nan
21863;BME280;11096;51.338;12.524;2023-04-01T02:19:07;98270.34;;;22.33;nan
21863;BME280;11096;51.338;12.524;2023-04-01T02:21:35;98272.53;;;22.36;nan
21863;BME280;11096;51.338;12.524;2023-04-01T02:24:04;98267.69;;;22.44;nan
21863;BME280;11096;51.338;12.524;2023-04-01T02:26:32;98264.06;;;22.15;nan
21863;BME280;11096;51.338;12.524;2023-04-01T02:28:59;98269.19;;;22.40;nan
21863;BME280;11096;51.338;12.524;2023-04-01T02:31:26;98273.34;;;22.06;nan
21863;BME280;11096;51.338;12.524;2023-04-01T02:33:53;98269.50;;;22.32;nan
21863;BME280;11096;51.338;12.524;2023-04-01T02:36:19;98268.63;;;22.38;nan
21863;BME280;11096;51.338;12.524;2023-04-01T02:38:45;98270.75;;;22.18;nan
21863;BME280;11096;51.338;12.524;2023-04-01T02:41:12;98277.50;;;21.53;nan
21863;BME280;11096;51.338;12.524;2023-04-01T02:43:37;98279.78;;;21.80;nan
21863;BME280;11096;51.338;12.524;2023-04-01T02:46:03;98280.19;;;21.65;nan
21863;BME280;11096;51.338;12.524;2023-04-01T02:48:29;98284.38;;;21.73;nan
21863;BME280;11096;51.338;12.524;2023-04-01T02:50:55;98281.63;;;22.09;nan
21863;BME280;11096;51.338;12.524;2023-04-01T02:53:21;98288.06;;;21.72;nan
21863;BME280;11096;51.338;12.524;2023-04-01T02:55:46;98277.06;;;21.56;nan
21863;BME280;11096;51.338;12.524;2023-04-01T02:58:14;98283.59;;;21.54;nan
21863;BME280;11096;51.338;12.524;2023-04-01T03:00:40;98283.50;;;21.60;nan
21863;BME280;11096;51.338;12.524;2023-04-01T03:03:07;98288.72;;;21.97;nan
21863;BME280;11096;51.338;12.524;2023-04-01T03:05:32;98284.50;;;21.78;nan
21863;BME280;11096;51.338;12.524;2023-04-01T03:07:58;98284.69;;;21.64;nan
21863;BME280;11096;51.338;12.524;2023-04-01T03:10:23;98288.97;;;21.47;nan
21863;BME280;11096;51.338;12.524;2023-04-01T03:12:48;98291.91;;;21.87;nan
21863;BME280;11096;51.338;12.524;2023-04-01T03:15:14;98284.06;;;21.81;nan
21863;BME280;11096;51.338;12.524;2023-04-01T03:17:41;98292.25;;;21.42;nan
21863;BME280;11096;51.338;12.524;2023-04-01T03:20:07;98282.44;;;22.10;nan
21863;BME280;11096;51.338;12.524;2023-04-01T03:22:34;98279.09;;;22.15;nan
21863;BME280;11096;51.338;12.524;2023-04-01T03:25:00;98278.31;;;22.14;nan
21863;BME280;11096;51.338;12.524;2023-04-01T03:27:26;98282.75;;;22.20;nan
21863;BME280;11096;51.338;12.524;2023-04-01T03:29:51;98280.56;;;21.99;nan
21863;BME280;11096;51.338;12.524;2023-04-01T03:32:16;98283.06;;;22.24;nan
21863;BME280;11096;51.338;12.524;2023-04-01T03:34:42;98275.44;;;22.16;nan
21863;BME280;11096;51.338;12.524;2023-04-01T03:37:07;98285.78;;;22.17;nan
21863;BME280;11096;51.338;12.524;2023-04-01T03:39:32;98288.03;;;22.20;nan
21863;BME280;11096;51.338;12.524;2023-04-01T03:41:58;98291.47;;;22.21;nan
21863;BME280;11096;51.338;12.524;2023-04-01T03:44:24;98301.53;;;22.12;nan
21863;BME280;11096;51.338;12.524;2023-04-01T03:46:50;98284.13;;;22.23;nan
21863;BME280;11096;51.338;12.524;2023-04-01T03:49:15;98289.00;;;22.38;nan
21863;BME280;11096;51.338;12.524;2023-04-01T03:51:42;98297.03;;;22.43;nan
21863;BME280;11096;51.338;12.524;2023-04-01T03:54:10;98299.44;;;22.02;nan
21863;BME280;11096;51.338;12.524;2023-04-01T03:56:36;98302.44;;;21.76;nan
21863;BME280;11096;51.338;12.524;2023-04-01T03:59:04;98297.56;;;21.91;nan
21863;BME280;11096;51.338;12.524;2023-04-01T04:01:30;98298.38;;;21.73;nan
21863;BME280;11096;51.338;12.524;2023-04-01T04:03:56;98305.13;;;21.87;nan
21863;BME280;11096;51.338;12.524;2023-04-01T04:06:22;98305.94;;;21.88;nan
21863;BME280;11096;51.338;12.524;2023-04-01T04:08:48;98309.78;;;21.74;nan
21863;BME280;11096;51.338;12.524;2023-04-01T04:11:13;98306.81;;;21.52;nan
21863;BME280;11096;51.338;12.524;2023-04-01T04:13:39;98308.56;;;21.39;nan
21863;BME280;11096;51.338;12.524;2023-04-01T04:16:05;98308.78;;;21.56;nan
21863;BME280;11096;51.338;12.524;2023-04-01T04:18:31;98306.41;;;21.30;nan
21863;BME280;11096;51.338;12.524;2023-04-01T04:20:58;98310.69;;;21.49;nan
21863;BME280;11096;51.338;12.524;2023-04-01T04:23:24;98309.97;;;20.98;nan
21863;BME280;11096;51.338;12.524;2023-04-01T04:25:58;98314.16;;;21.06;nan
21863;BME280;11096;51.338;12.524;2023-04-01T04:28:24;98314.16;;;21.06;nan
21863;BME280;11096;51.338;12.524;2023-04-01T04:30:50;98317.38;;;21.08;nan
21863;BME280;11096;51.338;12.524;2023-04-01T04:33:16;98321.56;;;20.97;nan
21863;BME280;11096;51.338;12.524;2023-04-01T04:35:41;98324.72;;;21.06;nan
21863;BME280;11096;51.338;12.524;2023-04-01T04:38:07;98328.19;;;20.50;nan
21863;BME280;11096;51.338;12.524;2023-04-01T04:40:32;98327.19;;;20.83;nan
21863;BME280;11096;51.338;12.524;2023-04-01T04:42:58;98331.31;;;20.97;nan
21863;BME280;11096;51.338;12.524;2023-04-01T04:45:23;98327.31;;;20.88;nan
21863;BME280;11096;51.338;12.524;2023-04-01T04:47:48;98330.75;;;21.13;nan
21863;BME280;11096;51.338;12.524;2023-04-01T04:50:14;98340.56;;;21.06;nan
21863;BME280;11096;51.338;12.524;2023-04-01T04:52:39;98335.91;;;20.83;nan
21863;BME280;11096;51.338;12.524;2023-04-01T04:55:05;98330.63;;;21.27;nan
21863;BME280;11096;51.338;12.524;2023-04-01T04:57:31;98340.34;;;21.51;nan
21863;BME280;11096;51.338;12.524;2023-04-01T04:59:56;98341.50;;;21.37;nan
21863;BME280;11096;51.338;12.524;2023-04-01T05:02:22;98335.13;;;21.63;nan
21863;BME280;11096;51.338;12.524;2023-04-01T05:04:47;98344.28;;;21.79;nan
21863;BME280;11096;51.338;12.524;2023-04-01T05:07:12;98338.53;;;22.00;nan
21863;BME280;11096;51.338;12.524;2023-04-01T05:09:38;98337.69;;;21.88;nan
21863;BME280;11096;51.338;12.524;2023-04-01T05:12:03;98336.72;;;21.27;nan
21863;BME280;11096;51.338;12.524;2023-04-01T05:14:29;98341.19;;;21.01;nan
21863;BME280;11096;51.338;12.524;2023-04-01T05:16:55;98344.81;;;21.51;nan
21863;BME280;11096;51.338;12.524;2023-04-01T05:19:20;98344.53;;;21.34;nan
21863;BME280;11096;51.338;12.524;2023-04-01T05:21:46;98350.44;;;21.36;nan
21863;BME280;11096;51.338;12.524;2023-04-01T05:24:11;98351.25;;;21.73;nan
21863;BME280;11096;51.338;12.524;2023-04-01T05:26:37;98358.56;;;21.59;nan
21863;BME280;11096;51.338;12.524;2023-04-01T05:29:03;98347.88;;;22.15;nan
21863;BME280;11096;51.338;12.524;2023-04-01T05:31:29;98357.91;;;21.64;nan
21863;BME280;11096;51.338;12.524;2023-04-01T05:33:55;98358.91;;;21.63;nan
21863;BME280;11096;51.338;12.524;2023-04-01T05:36:21;98363.03;;;22.26;nan
21863;BME280;11096;51.338;12.524;2023-04-01T05:38:47;98354.69;;;22.11;nan
21863;BME280;11096;51.338;12.524;2023-04-01T05:41:13;98357.00;;;22.19;nan
21863;BME280;11096;51.338;12.524;2023-04-01T05:43:39;98359.44;;;21.72;nan
21863;BME280;11096;51.338;12.524;2023-04-01T05:46:05;98356.22;;;22.00;nan
21863;BME280;11096;51.338;12.524;2023-04-01T05:48:32;98354.63;;;21.99;nan
21863;BME280;11096;51.338;12.524;2023-04-01T05:50:59;98357.31;;;22.11;nan
21863;BME280;11096;51.338;12.524;2023-04-01T05:53:24;98362.63;;;22.11;nan
21863;BME280;11096;51.338;12.524;2023-04-01T05:55:50;98362.91;;;22.02;nan
21863;BME280;11096;51.338;12.524;2023-04-01T05:58:15;98366.41;;;22.33;nan
21863;BME280;11096;51.338;12.524;2023-04-01T06:00:41;98369.81;;;22.22;nan
21863;BME280;11096;51.338;12.524;2023-04-01T06:03:06;98369.59;;;22.23;nan
21863;BME280;11096;51.338;12.524;2023-04-01T06:05:41;98374.28;;;22.51;nan
21863;BME280;11096;51.338;12.524;2023-04-01T06:08:15;98368.59;;;22.36;nan
21863;BME280;11096;51.338;12.524;2023-04-01T06:27:20;98387.47;;;21.54;nan
21863;BME280;11096;51.338;12.524;2023-04-01T06:29:55;98389.22;;;21.60;nan
21863;BME280;11096;51.338;12.524;2023-04-01T06:35:28;98390.25;;;21.96;nan
21863;BME280;11096;51.338;12.524;2023-04-01T06:54:21;98394.16;;;22.42;nan
21863;BME280;11096;51.338;12.524;2023-04-01T06:56:54;98391.53;;;22.42;nan
21863;BME280;11096;51.338;12.524;2023-04-01T06:59:27;98390.97;;;22.22;nan
21863;BME280;11096;51.338;12.524;2023-04-01T07:01:57;98393.03;;;22.20;nan
21863;BME280;11096;51.338;12.524;2023-04-01T07:04:38;98399.97;;;22.63;nan
21863;BME280;11096;51.338;12.524;2023-04-01T07:07:14;98398.28;;;22.38;nan
21863;BME280;11096;51.338;12.524;2023-04-01T07:09:45;98393.53;;;22.28;nan
21863;BME280;11096;51.338;12.524;2023-04-01T07:15:05;98401.72;;;22.69;nan
21863;BME280;11096;51.338;12.524;2023-04-01T07:17:39;98404.28;;;22.15;nan
21863;BME280;11096;51.338;12.524;2023-04-01T07:22:47;98406.56;;;22.30;nan
21863;BME280;11096;51.338;12.524;2023-04-01T07:27:47;98414.28;;;22.73;nan
21863;BME280;11096;51.338;12.524;2023-04-01T07:30:16;98406.72;;;21.80;nan
21863;BME280;11096;51.338;12.524;2023-04-01T07:35:23;98422.72;;;22.03;nan
21863;BME280;11096;51.338;12.524;2023-04-01T07:38:03;98415.25;;;22.00;nan
21863;BME280;11096;51.338;12.524;2023-04-01T07:46:00;98428.00;;;21.85;nan
21863;BME280;11096;51.338;12.524;2023-04-01T07:48:54;98436.53;;;21.87;nan
21863;BME280;11096;51.338;12.524;2023-04-01T07:51:29;98431.81;;;22.07;nan
21863;BME280;11096;51.338;12.524;2023-04-01T07:54:18;98432.94;;;22.00;nan
21863;BME280;11096;51.338;12.524;2023-04-01T07:57:23;98434.69;;;22.06;nan
21863;BME280;11096;51.338;12.524;2023-04-01T08:05:28;98442.50;;;22.49;nan
21863;BME280;11096;51.338;12.524;2023-04-01T08:08:09;98441.06;;;22.17;nan
21863;BME280;11096;51.338;12.524;2023-04-01T08:13:10;98442.09;;;21.97;nan
21863;BME280;11096;51.338;12.524;2023-04-01T08:21:15;98450.44;;;23.57;nan
21863;BME280;11096;51.338;12.524;2023-04-01T08:23:46;98455.47;;;23.00;nan
21863;BME280;11096;51.338;12.524;2023-04-01T08:28:55;98464.44;;;22.99;nan
21863;BME280;11096;51.338;12.524;2023-04-01T08:33:53;98457.00;;;23.07;nan
21863;BME280;11096;51.338;12.524;2023-04-01T08:36:23;98457.31;;;23.11;nan
21863;BME280;11096;51.338;12.524;2023-04-01T08:39:02;98464.50;;;23.22;nan
21863;BME280;11096;51.338;12.524;2023-04-01T08:47:00;98465.03;;;22.40;nan
21863;BME280;11096;51.338;12.524;2023-04-01T08:55:31;98469.16;;;22.97;nan
21863;BME280;11096;51.338;12.524;2023-04-01T08:58:17;98464.53;;;23.93;nan
21863;BME280;11096;51.338;12.524;2023-04-01T09:00:54;98459.66;;;23.66;nan
21863;BME280;11096;51.338;12.524;2023-04-01T09:03:37;98459.78;;;23.71;nan
21863;BME280;11096;51.338;12.524;2023-04-01T09:14:05;98458.22;;;24.23;nan
21863;BME280;11096;51.338;12.524;2023-04-01T09:16:44;98460.22;;;24.04;nan
21863;BME280;11096;51.338;12.524;2023-04-01T09:27:29;98464.78;;;24.32;nan
21863;BME280;11096;51.338;12.524;2023-04-01T09:32:58;98464.81;;;24.20;nan
21863;BME280;11096;51.338;12.524;2023-04-01T09:35:48;98464.69;;;24.84;nan
21863;BME280;11096;51.338;12.524;2023-04-01T09:38:28;98474.84;;;24.58;nan
21863;BME280;11096;51.338;12.524;2023-04-01T09:41:32;98473.25;;;24.17;nan
21863;BME280;11096;51.338;12.524;2023-04-01T09:44:15;98467.28;;;23.74;nan
21863;BME280;11096;51.338;12.524;2023-04-01T10:38:05;98469.53;;;24.87;nan
21863;BME280;11096;51.338;12.524;2023-04-01T10:40:44;98467.47;;;25.40;nan
21863;BME280;11096;51.338;12.524;2023-04-01T10:43:52;98474.41;;;25.24;nan
21863;BME280;11096;51.338;12.524;2023-04-01T11:33:43;98467.75;;;27.57;nan
21863;BME280;11096;51.338;12.524;2023-04-01T11:36:18;98467.03;;;26.26;nan
21863;BME280;11096;51.338;12.524;2023-04-01T11:44:18;98471.59;;;26.74;nan
21863;BME280;11096;51.338;12.524;2023-04-01T11:46:56;98467.28;;;26.68;nan
21863;BME280;11096;51.338;12.524;2023-04-01T11:49:52;98471.94;;;25.73;nan
21863;BME280;11096;51.338;12.524;2023-04-01T12:14:44;98495.66;;;26.35;nan
21863;BME280;11096;51.338;12.524;2023-04-01T12:17:29;98499.59;;;26.77;nan
21863;BME280;11096;51.338;12.524;2023-04-01T12:26:36;98500.34;;;26.50;nan
21863;BME280;11096;51.338;12.524;2023-04-01T12:37:08;98512.28;;;26.04;nan
21863;BME280;11096;51.338;12.524;2023-04-01T12:39:56;98509.03;;;25.97;nan
21863;BME280;11096;51.338;12.524;2023-04-01T12:42:38;98516.66;;;26.32;nan
21863;BME280;11096;51.338;12.524;2023-04-01T12:45:32;98518.00;;;26.79;nan
21863;BME280;11096;51.338;12.524;2023-04-01T12:56:18;98523.44;;;26.23;nan
21863;BME280;11096;51.338;12.524;2023-04-01T13:07:19;98526.25;;;26.33;nan
21863;BME280;11096;51.338;12.524;2023-04-01T13:13:18;98534.56;;;26.59;nan
21863;BME280;11096;51.338;12.524;2023-04-01T13:15:52;98528.63;;;25.74;nan
21863;BME280;11096;51.338;12.524;2023-04-01T13:18:41;98538.22;;;25.58;nan
21863;BME280;11096;51.338;12.524;2023-04-01T13:21:20;98538.84;;;24.57;nan
21863;BME280;11096;51.338;12.524;2023-04-01T13:23:54;98545.94;;;25.42;nan
21863;BME280;11096;51.338;12.524;2023-04-01T13:26:53;98545.06;;;25.37;nan
21863;BME280;11096;51.338;12.524;2023-04-01T13:29:25;98540.94;;;25.00;nan
21863;BME280;11096;51.338;12.524;2023-04-01T13:32:24;98547.25;;;25.57;nan
21863;BME280;11096;51.338;12.524;2023-04-01T13:35:02;98549.94;;;24.30;nan
21863;BME280;11096;51.338;12.524;2023-04-01T13:43:35;98552.41;;;25.80;nan
21863;BME280;11096;51.338;12.524;2023-04-01T13:51:16;98546.94;;;25.36;nan
21863;BME280;11096;51.338;12.524;2023-04-01T13:59:29;98563.09;;;25.18;nan
21863;BME280;11096;51.338;12.524;2023-04-01T14:20:19;98577.34;;;23.95;nan
21863;BME280;11096;51.338;12.524;2023-04-01T14:47:42;98591.94;;;24.57;nan
21863;BME280;11096;51.338;12.524;2023-04-01T14:50:13;98593.69;;;24.28;nan
21863;BME280;11096;51.338;12.524;2023-04-01T14:52:43;98596.09;;;24.41;nan
21863;BME280;11096;51.338;12.524;2023-04-01T14:55:25;98596.47;;;24.56;nan
21863;BME280;11096;51.338;12.524;2023-04-01T14:58:09;98600.81;;;24.39;nan
21863;BME280;11096;51.338;12.524;2023-04-01T15:05:49;98616.03;;;22.82;nan
21863;BME280;11096;51.338;12.524;2023-04-01T15:14:00;98627.56;;;21.57;nan
21863;BME280;11096;51.338;12.524;2023-04-01T15:25:17;98623.47;;;23.83;nan
21863;BME280;11096;51.338;12.524;2023-04-01T15:30:36;98626.03;;;23.59;nan
21863;BME280;11096;51.338;12.524;2023-04-01T15:39:29;98628.09;;;24.34;nan
21863;BME280;11096;51.338;12.524;2023-04-01T15:44:35;98631.63;;;24.63;nan
21863;BME280;11096;51.338;12.524;2023-04-01T16:04:44;98649.03;;;24.83;nan
21863;BME280;11096;51.338;12.524;2023-04-01T16:15:24;98655.63;;;23.86;nan
21863;BME280;11096;51.338;12.524;2023-04-01T16:23:20;98659.13;;;24.69;nan
21863;BME280;11096;51.338;12.524;2023-04-01T16:28:32;98668.69;;;23.27;nan
21863;BME280;11096;51.338;12.524;2023-04-01T16:31:10;98674.97;;;23.45;nan
21863;BME280;11096;51.338;12.524;2023-04-01T16:33:52;98682.47;;;23.18;nan
21863;BME280;11096;51.338;12.524;2023-04-01T16:36:26;98683.59;;;23.10;nan
21863;BME280;11096;51.338;12.524;2023-04-01T16:44:47;98695.22;;;23.09;nan
21863;BME280;11096;51.338;12.524;2023-04-01T16:47:19;98703.59;;;23.06;nan
21863;BME280;11096;51.338;12.524;2023-04-01T16:49:56;98699.13;;;23.06;nan
21863;BME280;11096;51.338;12.524;2023-04-01T16:52:35;98703.91;;;22.98;nan
21863;BME280;11096;51.338;12.524;2023-04-01T16:55:14;98707.84;;;22.88;nan
21863;BME280;11096;51.338;12.524;2023-04-01T16:57:49;98706.75;;;22.78;nan
21863;BME280;11096;51.338;12.524;2023-04-01T17:11:19;98728.81;;;22.28;nan
21863;BME280;11096;51.338;12.524;2023-04-01T17:14:28;98731.16;;;22.36;nan
21863;BME280;11096;51.338;12.524;2023-04-01T17:17:05;98729.44;;;22.48;nan
21863;BME280;11096;51.338;12.524;2023-04-01T17:23:31;98739.16;;;22.29;nan
21863;BME280;11096;51.338;12.524;2023-04-01T17:28:52;98748.00;;;22.10;nan
21863;BME280;11096;51.338;12.524;2023-04-01T17:34:43;98762.56;;;22.33;nan
21863;BME280;11096;51.338;12.524;2023-04-01T17:45:28;98773.56;;;22.29;nan
21863;BME280;11096;51.338;12.524;2023-04-01T17:48:03;98784.97;;;22.30;nan
21863;BME280;11096;51.338;12.524;2023-04-01T17:55:55;98791.72;;;22.26;nan
21863;BME280;11096;51.338;12.524;2023-04-01T17:58:51;98791.19;;;23.11;nan
21863;BME280;11096;51.338;12.524;2023-04-01T18:04:04;98802.69;;;21.91;nan
21863;BME280;11096;51.338;12.524;2023-04-01T18:14:51;98806.19;;;22.73;nan
21863;BME280;11096;51.338;12.524;2023-04-01T18:20:28;98811.59;;;22.35;nan
21863;BME280;11096;51.338;12.524;2023-04-01T18:22:58;98817.56;;;22.24;nan
21863;BME280;11096;51.338;12.524;2023-04-01T18:25:32;98818.31;;;22.38;nan
21863;BME280;11096;51.338;12.524;2023-04-01T18:33:50;98833.09;;;22.07;nan
21863;BME280;11096;51.338;12.524;2023-04-01T18:48:15;98854.53;;;21.92;nan
21863;BME280;11096;51.338;12.524;2023-04-01T18:50:59;98864.97;;;21.80;nan
21863;BME280;11096;51.338;12.524;2023-04-01T18:56:04;98882.84;;;21.92;nan
21863;BME280;11096;51.338;12.524;2023-04-01T19:01:13;98890.34;;;21.95;nan
21863;BME280;11096;51.338;12.524;2023-04-01T19:03:52;98892.44;;;21.86;nan
21863;BME280;11096;51.338;12.524;2023-04-01T19:06:25;98895.50;;;21.76;nan
21863;BME280;11096;51.338;12.524;2023-04-01T19:08:52;98899.88;;;21.44;nan
21863;BME280;11096;51.338;12.524;2023-04-01T19:11:26;98902.03;;;21.74;nan
21863;BME280;11096;51.338;12.524;2023-04-01T19:14:24;98906.44;;;21.93;nan
21863;BME280;11096;51.338;12.524;2023-04-01T19:22:24;98913.75;;;21.91;nan
21863;BME280;11096;51.338;12.524;2023-04-01T19:33:22;98926.91;;;22.11;nan
21863;BME280;11096;51.338;12.524;2023-04-01T19:36:14;98927.78;;;21.98;nan
21863;BME280;11096;51.338;12.524;2023-04-01T19:38:53;98934.75;;;21.79;nan
21863;BME280;11096;51.338;12.524;2023-04-01T19:41:38;98938.63;;;21.70;nan
21863;BME280;11096;51.338;12.524;2023-04-01T19:44:16;98950.00;;;21.77;nan
21863;BME280;11096;51.338;12.524;2023-04-01T19:52:03;98952.31;;;21.47;nan
21863;BME280;11096;51.338;12.524;2023-04-01T19:57:38;98964.06;;;21.64;nan
21863;BME280;11096;51.338;12.524;2023-04-01T20:01:28;98972.44;;;21.48;nan
21863;BME280;11096;51.338;12.524;2023-04-01T20:11:38;98984.19;;;21.72;nan
21863;BME280;11096;51.338;12.524;2023-04-01T20:17:02;99000.88;;;21.59;nan
21863;BME280;11096;51.338;12.524;2023-04-01T20:19:42;99006.16;;;21.73;nan
21863;BME280;11096;51.338;12.524;2023-04-01T20:22:48;99004.75;;;21.37;nan
21863;BME280;11096;51.338;12.524;2023-04-01T20:25:25;99011.44;;;21.19;nan
21863;BME280;11096;51.338;12.524;2023-04-01T20:27:58;99021.19;;;21.12;nan
21863;BME280;11096;51.338;12.524;2023-04-01T20:31:20;99015.28;;;21.23;nan
21863;BME280;11096;51.338;12.524;2023-04-01T20:46:43;99054.50;;;21.13;nan
21863;BME280;11096;51.338;12.524;2023-04-01T21:08:36;99078.47;;;20.50;nan
21863;BME280;11096;51.338;12.524;2023-04-01T21:17:17;99094.81;;;20.74;nan
21863;BME280;11096;51.338;12.524;2023-04-01T21:25:30;99109.19;;;20.65;nan
21863;BME280;11096;51.338;12.524;2023-04-01T21:31:12;99120.94;;;20.62;nan
21863;BME280;11096;51.338;12.524;2023-04-01T21:36:56;99137.88;;;20.11;nan
21863;BME280;11096;51.338;12.524;2023-04-01T21:39:34;99142.25;;;19.55;nan
21863;BME280;11096;51.338;12.524;2023-04-01T21:42:48;99144.81;;;19.48;nan
21863;BME280;11096;51.338;12.524;2023-04-01T21:50:53;99146.22;;;20.15;nan
21863;BME280;11096;51.338;12.524;2023-04-01T22:09:56;99180.91;;;19.47;nan
21863;BME280;11096;51.338;12.524;2023-04-01T22:17:56;99202.38;;;19.15;nan
21863;BME280;11096;51.338;12.524;2023-04-01T22:20:44;99194.53;;;19.36;nan
21863;BME280;11096;51.338;12.524;2023-04-01T22:23:29;99205.03;;;19.87;nan
21863;BME280;11096;51.338;12.524;2023-04-01T22:31:51;99225.00;;;19.09;nan
21863;BME280;11096;51.338;12.524;2023-04-01T22:34:27;99220.16;;;19.42;nan
21863;BME280;11096;51.338;12.524;2023-04-01T22:42:44;99237.25;;;19.17;nan
21863;BME280;11096;51.338;12.524;2023-04-01T22:50:40;99243.72;;;18.99;nan
21863;BME280;11096;51.338;12.524;2023-04-01T22:56:03;99254.25;;;18.99;nan
21863;BME280;11096;51.338;12.524;2023-04-01T22:58:33;99255.16;;;18.77;nan
21863;BME280;11096;51.338;12.524;2023-04-01T23:01:12;99264.88;;;18.91;nan
21863;BME280;11096;51.338;12.524;2023-04-01T23:03:41;99259.88;;;18.81;nan
21863;BME280;11096;51.338;12.524;2023-04-01T23:06:19;99269.03;;;18.71;nan
21863;BME280;11096;51.338;12.524;2023-04-01T23:08:59;99273.75;;;18.90;nan
21863;BME280;11096;51.338;12.524;2023-04-01T23:12:00;99278.31;;;19.26;nan
21863;BME280;11096;51.338;12.524;2023-04-01T23:14:32;99277.03;;;18.39;nan
21863;BME280;11096;51.338;12.524;2023-04-01T23:20:14;99290.06;;;18.71;nan
21863;BME280;11096;51.338;12.524;2023-04-01T23:25:56;99300.75;;;18.54;nan
21863;BME280;11096;51.338;12.524;2023-04-01T23:28:32;99298.19;;;18.00;nan
21863;BME280;11096;51.338;12.524;2023-04-01T23:31:02;99307.66;;;18.09;nan
21863;BME280;11096;51.338;12.524;2023-04-01T23:33:29;99307.19;;;18.06;nan
21863;BME280;11096;51.338;12.524;2023-04-01T23:36:13;99312.28;;;18.07;nan
21863;BME280;11096;51.338;12.524;2023-04-01T23:38:41;99323.47;;;18.01;nan
21863;BME280;11096;51.338;12.524;2023-04-01T23:41:09;99323.59;;;17.85;nan
21863;BME280;11096;51.338;12.524;2023-04-01T23:43:43;99336.44;;;17.24;nan
21863;BME280;11096;51.338;12.524;2023-04-01T23:46:11;99340.50;;;17.34;nan
21863;BME280;11096;51.338;12.524;2023-04-01T23:48:43;99336.50;;;17.55;nan
21863;BME280;11096;51.338;12.524;2023-04-01T23:51:22;99345.53;;;17.52;nan
21863;BME280;11096;51.338;12.524;2023-04-01T23:53:57;99345.97;;;17.64;nan
21863;BME280;11096;51.338;12.524;2023-04-01T23:56:34;99348.31;;;17.51;nan
21863;BME280;11096;51.338;12.524;2023-04-01T23:59:01;99350.03;;;17.35;nan
